sensor_id;sensor_type;location;lat;lon;timestamp;temperature;humidity
16980;DHT22;42288;52.182;21.156;2023-04-06T00:00:23;5.60;69.70
16980;DHT22;42288;52.182;21.156;2023-04-06T00:02:49;5.60;70.00
16980;DHT22;42288;52.182;21.156;2023-04-06T00:05:14;5.60;69.20
16980;DHT22;42288;52.182;21.156;2023-04-06T00:07:40;5.60;68.70
16980;DHT22;42288;52.182;21.156;2023-04-06T00:10:06;5.60;69.70
16980;DHT22;42288;52.182;21.156;2023-04-06T00:12:32;5.70;69.50
16980;DHT22;42288;52.182;21.156;2023-04-06T00:14:57;5.80;70.10
16980;DHT22;42288;52.182;21.156;2023-04-06T00:17:23;5.70;68.60
16980;DHT22;42288;52.182;21.156;2023-04-06T00:19:49;5.80;69.50
16980;DHT22;42288;52.182;21.156;2023-04-06T00:22:14;5.80;69.00
16980;DHT22;42288;52.182;21.156;2023-04-06T00:24:40;5.50;67.50
16980;DHT22;42288;52.182;21.156;2023-04-06T00:27:06;5.40;68.80
16980;DHT22;42288;52.182;21.156;2023-04-06T00:29:31;5.50;70.30
16980;DHT22;42288;52.182;21.156;2023-04-06T00:31:57;5.60;70.10
16980;DHT22;42288;52.182;21.156;2023-04-06T00:34:23;5.70;69.40
16980;DHT22;42288;52.182;21.156;2023-04-06T00:36:48;5.70;69.60
16980;DHT22;42288;52.182;21.156;2023-04-06T00:39:14;5.50;68.20
16980;DHT22;42288;52.182;21.156;2023-04-06T00:41:46;5.20;68.80
16980;DHT22;42288;52.182;21.156;2023-04-06T00:44:11;5.40;70.70
16980;DHT22;42288;52.182;21.156;2023-04-06T00:46:37;5.60;71.40
16980;DHT22;42288;52.182;21.156;2023-04-06T00:49:03;5.80;70.70
16980;DHT22;42288;52.182;21.156;2023-04-06T00:51:28;5.80;69.60
16980;DHT22;42288;52.182;21.156;2023-04-06T00:53:54;5.80;69.60
16980;DHT22;42288;52.182;21.156;2023-04-06T00:56:20;5.80;68.80
16980;DHT22;42288;52.182;21.156;2023-04-06T00:58:46;5.60;69.20
16980;DHT22;42288;52.182;21.156;2023-04-06T01:01:12;5.60;69.50
16980;DHT22;42288;52.182;21.156;2023-04-06T01:03:38;5.80;69.70
16980;DHT22;42288;52.182;21.156;2023-04-06T01:06:03;5.90;69.50
16980;DHT22;42288;52.182;21.156;2023-04-06T01:08:29;6.00;69.60
16980;DHT22;42288;52.182;21.156;2023-04-06T01:10:55;5.80;69.50
16980;DHT22;42288;52.182;21.156;2023-04-06T01:13:20;5.80;69.40
16980;DHT22;42288;52.182;21.156;2023-04-06T01:15:46;6.00;68.70
16980;DHT22;42288;52.182;21.156;2023-04-06T01:18:12;5.70;66.90
16980;DHT22;42288;52.182;21.156;2023-04-06T01:20:38;5.50;68.00
16980;DHT22;42288;52.182;21.156;2023-04-06T01:23:04;5.70;69.50
16980;DHT22;42288;52.182;21.156;2023-04-06T01:25:30;5.40;68.70
16980;DHT22;42288;52.182;21.156;2023-04-06T01:27:55;5.50;69.90
16980;DHT22;42288;52.182;21.156;2023-04-06T01:30:21;5.50;69.40
16980;DHT22;42288;52.182;21.156;2023-04-06T01:32:47;5.60;69.50
16980;DHT22;42288;52.182;21.156;2023-04-06T01:35:12;5.40;69.00
16980;DHT22;42288;52.182;21.156;2023-04-06T01:37:38;5.50;70.10
16980;DHT22;42288;52.182;21.156;2023-04-06T01:40:04;5.50;69.40
16980;DHT22;42288;52.182;21.156;2023-04-06T01:42:30;5.30;70.40
16980;DHT22;42288;52.182;21.156;2023-04-06T01:44:55;5.50;70.30
16980;DHT22;42288;52.182;21.156;2023-04-06T01:47:21;5.20;70.10
16980;DHT22;42288;52.182;21.156;2023-04-06T01:49:46;5.30;71.00
16980;DHT22;42288;52.182;21.156;2023-04-06T01:52:12;5.30;70.80
16980;DHT22;42288;52.182;21.156;2023-04-06T01:54:38;5.30;71.20
16980;DHT22;42288;52.182;21.156;2023-04-06T01:57:03;5.20;71.10
16980;DHT22;42288;52.182;21.156;2023-04-06T01:59:29;5.00;71.20
16980;DHT22;42288;52.182;21.156;2023-04-06T02:01:54;5.10;72.60
16980;DHT22;42288;52.182;21.156;2023-04-06T02:04:20;5.10;71.50
16980;DHT22;42288;52.182;21.156;2023-04-06T02:06:46;5.40;72.90
16980;DHT22;42288;52.182;21.156;2023-04-06T02:09:12;5.50;72.30
16980;DHT22;42288;52.182;21.156;2023-04-06T02:11:37;5.30;72.10
16980;DHT22;42288;52.182;21.156;2023-04-06T02:14:03;5.40;73.10
16980;DHT22;42288;52.182;21.156;2023-04-06T02:16:29;5.50;71.50
16980;DHT22;42288;52.182;21.156;2023-04-06T02:18:54;5.40;70.50
16980;DHT22;42288;52.182;21.156;2023-04-06T02:21:20;5.40;71.60
16980;DHT22;42288;52.182;21.156;2023-04-06T02:23:46;5.30;71.30
16980;DHT22;42288;52.182;21.156;2023-04-06T02:26:13;5.20;70.80
16980;DHT22;42288;52.182;21.156;2023-04-06T02:28:38;5.00;71.20
16980;DHT22;42288;52.182;21.156;2023-04-06T02:31:05;4.80;71.10
16980;DHT22;42288;52.182;21.156;2023-04-06T02:33:30;5.00;72.20
16980;DHT22;42288;52.182;21.156;2023-04-06T02:35:56;4.70;71.30
16980;DHT22;42288;52.182;21.156;2023-04-06T02:38:21;4.70;71.50
16980;DHT22;42288;52.182;21.156;2023-04-06T02:40:47;4.60;72.50
16980;DHT22;42288;52.182;21.156;2023-04-06T02:43:13;4.70;72.40
16980;DHT22;42288;52.182;21.156;2023-04-06T02:45:38;4.40;72.40
16980;DHT22;42288;52.182;21.156;2023-04-06T02:48:04;4.30;73.10
16980;DHT22;42288;52.182;21.156;2023-04-06T02:50:30;4.60;74.80
16980;DHT22;42288;52.182;21.156;2023-04-06T02:52:56;4.60;73.70
16980;DHT22;42288;52.182;21.156;2023-04-06T02:55:21;4.40;73.40
16980;DHT22;42288;52.182;21.156;2023-04-06T02:57:47;4.30;74.10
16980;DHT22;42288;52.182;21.156;2023-04-06T03:00:12;4.40;74.90
16980;DHT22;42288;52.182;21.156;2023-04-06T03:02:38;4.10;73.40
16980;DHT22;42288;52.182;21.156;2023-04-06T03:05:04;4.20;75.00
16980;DHT22;42288;52.182;21.156;2023-04-06T03:07:30;4.40;75.60
16980;DHT22;42288;52.182;21.156;2023-04-06T03:09:55;4.30;74.60
16980;DHT22;42288;52.182;21.156;2023-04-06T03:12:21;3.80;74.50
16980;DHT22;42288;52.182;21.156;2023-04-06T03:14:47;4.10;75.90
16980;DHT22;42288;52.182;21.156;2023-04-06T03:17:12;4.20;75.30
16980;DHT22;42288;52.182;21.156;2023-04-06T03:19:38;4.20;76.20
16980;DHT22;42288;52.182;21.156;2023-04-06T03:22:03;4.10;75.90
16980;DHT22;42288;52.182;21.156;2023-04-06T03:24:29;4.00;76.30
16980;DHT22;42288;52.182;21.156;2023-04-06T03:26:55;3.90;76.60
16980;DHT22;42288;52.182;21.156;2023-04-06T03:29:20;4.10;76.70
16980;DHT22;42288;52.182;21.156;2023-04-06T03:31:46;4.30;77.20
16980;DHT22;42288;52.182;21.156;2023-04-06T03:34:11;4.00;75.80
16980;DHT22;42288;52.182;21.156;2023-04-06T03:36:37;3.90;76.50
16980;DHT22;42288;52.182;21.156;2023-04-06T03:39:03;3.90;77.90
16980;DHT22;42288;52.182;21.156;2023-04-06T03:41:28;3.80;77.70
16980;DHT22;42288;52.182;21.156;2023-04-06T03:43:54;3.60;78.20
16980;DHT22;42288;52.182;21.156;2023-04-06T03:46:20;3.70;79.10
16980;DHT22;42288;52.182;21.156;2023-04-06T03:48:48;3.70;79.00
16980;DHT22;42288;52.182;21.156;2023-04-06T03:51:14;3.90;79.50
16980;DHT22;42288;52.182;21.156;2023-04-06T03:53:39;3.90;78.70
16980;DHT22;42288;52.182;21.156;2023-04-06T03:56:05;4.10;79.50
16980;DHT22;42288;52.182;21.156;2023-04-06T03:58:31;4.10;78.50
16980;DHT22;42288;52.182;21.156;2023-04-06T04:00:57;4.00;78.80
16980;DHT22;42288;52.182;21.156;2023-04-06T04:03:22;4.00;78.60
16980;DHT22;42288;52.182;21.156;2023-04-06T04:05:53;4.00;78.70
16980;DHT22;42288;52.182;21.156;2023-04-06T04:08:19;4.00;78.80
16980;DHT22;42288;52.182;21.156;2023-04-06T04:10:44;4.10;79.00
16980;DHT22;42288;52.182;21.156;2023-04-06T04:13:10;4.00;78.20
16980;DHT22;42288;52.182;21.156;2023-04-06T04:15:36;4.10;79.00
16980;DHT22;42288;52.182;21.156;2023-04-06T04:18:01;4.00;79.30
16980;DHT22;42288;52.182;21.156;2023-04-06T04:20:27;4.10;80.80
16980;DHT22;42288;52.182;21.156;2023-04-06T04:22:53;4.00;79.10
16980;DHT22;42288;52.182;21.156;2023-04-06T04:25:19;4.00;80.00
16980;DHT22;42288;52.182;21.156;2023-04-06T04:27:45;3.80;79.20
16980;DHT22;42288;52.182;21.156;2023-04-06T04:30:11;3.70;79.70
16980;DHT22;42288;52.182;21.156;2023-04-06T04:32:36;3.50;80.50
16980;DHT22;42288;52.182;21.156;2023-04-06T04:35:02;3.70;81.50
16980;DHT22;42288;52.182;21.156;2023-04-06T04:37:28;3.70;80.80
16980;DHT22;42288;52.182;21.156;2023-04-06T04:39:53;3.90;79.80
16980;DHT22;42288;52.182;21.156;2023-04-06T04:42:19;4.00;79.40
16980;DHT22;42288;52.182;21.156;2023-04-06T04:44:45;3.70;79.10
16980;DHT22;42288;52.182;21.156;2023-04-06T04:47:10;3.70;80.20
16980;DHT22;42288;52.182;21.156;2023-04-06T04:49:36;4.00;80.80
16980;DHT22;42288;52.182;21.156;2023-04-06T04:52:01;4.20;79.70
16980;DHT22;42288;52.182;21.156;2023-04-06T04:54:27;4.10;78.80
16980;DHT22;42288;52.182;21.156;2023-04-06T04:56:53;4.30;78.80
16980;DHT22;42288;52.182;21.156;2023-04-06T04:59:18;4.20;78.40
16980;DHT22;42288;52.182;21.156;2023-04-06T05:01:44;4.30;78.50
16980;DHT22;42288;52.182;21.156;2023-04-06T05:04:10;4.20;78.50
16980;DHT22;42288;52.182;21.156;2023-04-06T05:06:35;4.40;79.00
16980;DHT22;42288;52.182;21.156;2023-04-06T05:09:01;4.50;79.50
16980;DHT22;42288;52.182;21.156;2023-04-06T05:11:27;4.40;77.80
16980;DHT22;42288;52.182;21.156;2023-04-06T05:13:53;4.50;79.50
16980;DHT22;42288;52.182;21.156;2023-04-06T05:16:19;4.50;77.70
16980;DHT22;42288;52.182;21.156;2023-04-06T05:18:44;4.60;79.80
16980;DHT22;42288;52.182;21.156;2023-04-06T05:21:11;4.60;77.40
16980;DHT22;42288;52.182;21.156;2023-04-06T05:23:37;4.50;77.90
16980;DHT22;42288;52.182;21.156;2023-04-06T05:26:02;4.70;79.50
16980;DHT22;42288;52.182;21.156;2023-04-06T05:28:28;4.60;78.20
16980;DHT22;42288;52.182;21.156;2023-04-06T05:30:53;4.70;78.60
16980;DHT22;42288;52.182;21.156;2023-04-06T05:33:19;5.00;78.40
16980;DHT22;42288;52.182;21.156;2023-04-06T05:35:45;5.20;77.20
16980;DHT22;42288;52.182;21.156;2023-04-06T05:38:11;5.30;75.20
16980;DHT22;42288;52.182;21.156;2023-04-06T05:40:40;5.50;76.90
16980;DHT22;42288;52.182;21.156;2023-04-06T05:43:07;5.30;75.10
16980;DHT22;42288;52.182;21.156;2023-04-06T05:45:33;5.50;76.40
16980;DHT22;42288;52.182;21.156;2023-04-06T05:48:00;5.30;75.90
16980;DHT22;42288;52.182;21.156;2023-04-06T05:50:26;5.40;76.20
16980;DHT22;42288;52.182;21.156;2023-04-06T05:52:52;5.40;76.90
16980;DHT22;42288;52.182;21.156;2023-04-06T05:55:17;5.60;77.10
16980;DHT22;42288;52.182;21.156;2023-04-06T05:57:43;5.60;77.10
16980;DHT22;42288;52.182;21.156;2023-04-06T06:00:09;5.60;76.10
16980;DHT22;42288;52.182;21.156;2023-04-06T06:02:36;5.70;74.60
16980;DHT22;42288;52.182;21.156;2023-04-06T06:05:01;5.50;74.30
16980;DHT22;42288;52.182;21.156;2023-04-06T06:07:27;5.50;74.20
16980;DHT22;42288;52.182;21.156;2023-04-06T06:09:56;5.50;74.50
16980;DHT22;42288;52.182;21.156;2023-04-06T06:12:23;5.50;75.70
16980;DHT22;42288;52.182;21.156;2023-04-06T06:14:48;5.80;77.80
16980;DHT22;42288;52.182;21.156;2023-04-06T06:17:14;5.90;75.70
16980;DHT22;42288;52.182;21.156;2023-04-06T06:19:40;6.00;74.30
16980;DHT22;42288;52.182;21.156;2023-04-06T06:22:06;5.90;74.30
16980;DHT22;42288;52.182;21.156;2023-04-06T06:24:31;6.10;75.00
16980;DHT22;42288;52.182;21.156;2023-04-06T06:26:57;6.20;75.20
16980;DHT22;42288;52.182;21.156;2023-04-06T06:29:23;6.00;74.20
16980;DHT22;42288;52.182;21.156;2023-04-06T06:31:49;6.30;75.80
16980;DHT22;42288;52.182;21.156;2023-04-06T06:34:15;6.20;74.60
16980;DHT22;42288;52.182;21.156;2023-04-06T06:36:40;6.30;76.30
16980;DHT22;42288;52.182;21.156;2023-04-06T06:39:06;6.20;74.80
16980;DHT22;42288;52.182;21.156;2023-04-06T06:41:32;6.50;73.40
16980;DHT22;42288;52.182;21.156;2023-04-06T06:43:57;6.50;74.10
16980;DHT22;42288;52.182;21.156;2023-04-06T06:46:23;6.40;74.80
16980;DHT22;42288;52.182;21.156;2023-04-06T06:48:48;6.50;78.00
16980;DHT22;42288;52.182;21.156;2023-04-06T06:51:14;6.70;78.60
16980;DHT22;42288;52.182;21.156;2023-04-06T06:53:40;6.80;76.80
16980;DHT22;42288;52.182;21.156;2023-04-06T06:56:05;6.70;76.50
16980;DHT22;42288;52.182;21.156;2023-04-06T06:58:31;6.70;77.10
16980;DHT22;42288;52.182;21.156;2023-04-06T07:00:58;6.60;74.50
16980;DHT22;42288;52.182;21.156;2023-04-06T07:03:24;6.70;76.80
16980;DHT22;42288;52.182;21.156;2023-04-06T07:05:50;6.80;79.20
16980;DHT22;42288;52.182;21.156;2023-04-06T07:08:23;6.90;78.50
16980;DHT22;42288;52.182;21.156;2023-04-06T07:10:50;7.20;78.20
16980;DHT22;42288;52.182;21.156;2023-04-06T07:13:18;7.30;76.50
16980;DHT22;42288;52.182;21.156;2023-04-06T07:15:48;7.00;75.10
16980;DHT22;42288;52.182;21.156;2023-04-06T07:18:14;7.20;78.70
16980;DHT22;42288;52.182;21.156;2023-04-06T07:20:39;7.10;77.10
16980;DHT22;42288;52.182;21.156;2023-04-06T07:23:06;7.20;77.40
16980;DHT22;42288;52.182;21.156;2023-04-06T07:25:32;7.30;76.40
16980;DHT22;42288;52.182;21.156;2023-04-06T07:27:57;7.30;76.60
16980;DHT22;42288;52.182;21.156;2023-04-06T07:30:23;7.30;75.60
16980;DHT22;42288;52.182;21.156;2023-04-06T07:32:51;7.20;75.70
16980;DHT22;42288;52.182;21.156;2023-04-06T07:35:17;7.40;76.60
16980;DHT22;42288;52.182;21.156;2023-04-06T07:37:42;7.40;74.10
16980;DHT22;42288;52.182;21.156;2023-04-06T07:40:08;7.40;76.40
16980;DHT22;42288;52.182;21.156;2023-04-06T07:42:34;7.30;74.50
16980;DHT22;42288;52.182;21.156;2023-04-06T07:45:00;7.20;75.10
16980;DHT22;42288;52.182;21.156;2023-04-06T07:47:25;7.00;75.40
16980;DHT22;42288;52.182;21.156;2023-04-06T07:49:51;7.40;77.00
16980;DHT22;42288;52.182;21.156;2023-04-06T07:52:17;7.20;74.90
16980;DHT22;42288;52.182;21.156;2023-04-06T07:54:42;7.00;75.60
16980;DHT22;42288;52.182;21.156;2023-04-06T07:57:08;6.90;76.50
16980;DHT22;42288;52.182;21.156;2023-04-06T07:59:34;7.00;78.30
16980;DHT22;42288;52.182;21.156;2023-04-06T08:02:00;6.90;79.20
16980;DHT22;42288;52.182;21.156;2023-04-06T08:04:25;7.00;78.60
16980;DHT22;42288;52.182;21.156;2023-04-06T08:06:51;6.90;79.70
16980;DHT22;42288;52.182;21.156;2023-04-06T08:09:17;7.10;81.80
16980;DHT22;42288;52.182;21.156;2023-04-06T08:11:42;7.20;81.40
16980;DHT22;42288;52.182;21.156;2023-04-06T08:14:09;7.20;79.70
16980;DHT22;42288;52.182;21.156;2023-04-06T08:16:35;7.10;79.00
16980;DHT22;42288;52.182;21.156;2023-04-06T08:19:00;7.30;81.40
16980;DHT22;42288;52.182;21.156;2023-04-06T08:21:26;7.10;77.40
16980;DHT22;42288;52.182;21.156;2023-04-06T08:23:51;7.00;78.20
16980;DHT22;42288;52.182;21.156;2023-04-06T08:26:17;7.40;78.60
16980;DHT22;42288;52.182;21.156;2023-04-06T08:28:43;7.50;77.30
16980;DHT22;42288;52.182;21.156;2023-04-06T08:31:08;7.30;78.50
16980;DHT22;42288;52.182;21.156;2023-04-06T08:33:34;7.00;79.60
16980;DHT22;42288;52.182;21.156;2023-04-06T08:36:11;6.90;81.20
16980;DHT22;42288;52.182;21.156;2023-04-06T08:38:38;7.10;79.50
16980;DHT22;42288;52.182;21.156;2023-04-06T08:41:11;6.80;78.30
16980;DHT22;42288;52.182;21.156;2023-04-06T08:43:43;6.60;79.90
16980;DHT22;42288;52.182;21.156;2023-04-06T08:46:10;6.60;80.40
16980;DHT22;42288;52.182;21.156;2023-04-06T08:48:38;6.60;82.50
16980;DHT22;42288;52.182;21.156;2023-04-06T08:51:03;6.50;80.90
16980;DHT22;42288;52.182;21.156;2023-04-06T08:53:29;6.60;84.50
16980;DHT22;42288;52.182;21.156;2023-04-06T08:55:57;6.60;83.70
16980;DHT22;42288;52.182;21.156;2023-04-06T08:58:24;6.50;84.60
16980;DHT22;42288;52.182;21.156;2023-04-06T09:00:51;6.50;85.20
16980;DHT22;42288;52.182;21.156;2023-04-06T09:03:18;6.60;86.70
16980;DHT22;42288;52.182;21.156;2023-04-06T09:05:45;6.50;86.10
16980;DHT22;42288;52.182;21.156;2023-04-06T09:08:12;6.30;86.20
16980;DHT22;42288;52.182;21.156;2023-04-06T09:10:40;6.40;86.80
16980;DHT22;42288;52.182;21.156;2023-04-06T09:13:06;6.50;86.20
16980;DHT22;42288;52.182;21.156;2023-04-06T09:15:32;6.60;88.00
16980;DHT22;42288;52.182;21.156;2023-04-06T09:17:58;6.30;86.60
16980;DHT22;42288;52.182;21.156;2023-04-06T09:20:24;6.50;88.40
16980;DHT22;42288;52.182;21.156;2023-04-06T09:22:54;6.80;87.00
16980;DHT22;42288;52.182;21.156;2023-04-06T09:25:24;6.80;86.70
16980;DHT22;42288;52.182;21.156;2023-04-06T09:28:00;6.60;86.80
16980;DHT22;42288;52.182;21.156;2023-04-06T09:30:25;6.30;87.40
16980;DHT22;42288;52.182;21.156;2023-04-06T09:32:54;6.30;89.40
16980;DHT22;42288;52.182;21.156;2023-04-06T09:35:20;6.20;90.10
16980;DHT22;42288;52.182;21.156;2023-04-06T09:37:47;6.20;90.40
16980;DHT22;42288;52.182;21.156;2023-04-06T09:40:14;6.20;90.20
16980;DHT22;42288;52.182;21.156;2023-04-06T09:42:46;5.80;91.10
16980;DHT22;42288;52.182;21.156;2023-04-06T09:45:12;5.70;92.40
16980;DHT22;42288;52.182;21.156;2023-04-06T09:47:40;5.90;92.70
16980;DHT22;42288;52.182;21.156;2023-04-06T09:50:09;6.20;92.10
16980;DHT22;42288;52.182;21.156;2023-04-06T09:52:56;5.90;91.90
16980;DHT22;42288;52.182;21.156;2023-04-06T09:55:31;6.00;92.10
16980;DHT22;42288;52.182;21.156;2023-04-06T09:58:06;5.70;92.10
16980;DHT22;42288;52.182;21.156;2023-04-06T10:00:44;5.90;92.50
16980;DHT22;42288;52.182;21.156;2023-04-06T10:03:14;6.20;92.00
16980;DHT22;42288;52.182;21.156;2023-04-06T10:06:05;5.90;92.10
16980;DHT22;42288;52.182;21.156;2023-04-06T10:08:33;5.80;92.40
16980;DHT22;42288;52.182;21.156;2023-04-06T10:11:00;5.70;92.80
16980;DHT22;42288;52.182;21.156;2023-04-06T10:13:26;5.40;92.80
16980;DHT22;42288;52.182;21.156;2023-04-06T10:15:53;5.40;93.10
16980;DHT22;42288;52.182;21.156;2023-04-06T10:18:19;5.50;93.10
16980;DHT22;42288;52.182;21.156;2023-04-06T10:21:00;5.50;93.70
16980;DHT22;42288;52.182;21.156;2023-04-06T10:25:58;5.40;94.50
16980;DHT22;42288;52.182;21.156;2023-04-06T10:28:25;5.30;94.40
16980;DHT22;42288;52.182;21.156;2023-04-06T10:30:58;5.20;94.40
16980;DHT22;42288;52.182;21.156;2023-04-06T10:33:23;5.30;94.40
16980;DHT22;42288;52.182;21.156;2023-04-06T10:35:49;5.40;94.20
16980;DHT22;42288;52.182;21.156;2023-04-06T10:38:15;5.20;94.00
16980;DHT22;42288;52.182;21.156;2023-04-06T10:40:45;5.20;94.00
16980;DHT22;42288;52.182;21.156;2023-04-06T10:43:19;5.30;94.60
16980;DHT22;42288;52.182;21.156;2023-04-06T10:45:44;5.30;93.60
16980;DHT22;42288;52.182;21.156;2023-04-06T10:48:18;5.50;93.60
16980;DHT22;42288;52.182;21.156;2023-04-06T10:50:46;5.20;94.00
16980;DHT22;42288;52.182;21.156;2023-04-06T10:53:19;5.20;94.50
16980;DHT22;42288;52.182;21.156;2023-04-06T10:55:47;5.30;94.50
16980;DHT22;42288;52.182;21.156;2023-04-06T10:58:14;5.20;94.50
16980;DHT22;42288;52.182;21.156;2023-04-06T11:00:48;5.10;94.80
16980;DHT22;42288;52.182;21.156;2023-04-06T11:03:14;5.30;94.00
16980;DHT22;42288;52.182;21.156;2023-04-06T11:05:47;5.30;94.20
16980;DHT22;42288;52.182;21.156;2023-04-06T11:08:31;5.50;94.20
16980;DHT22;42288;52.182;21.156;2023-04-06T11:11:06;5.50;93.90
16980;DHT22;42288;52.182;21.156;2023-04-06T11:13:40;5.50;94.20
16980;DHT22;42288;52.182;21.156;2023-04-06T11:16:06;5.40;94.10
16980;DHT22;42288;52.182;21.156;2023-04-06T11:18:31;5.50;93.90
16980;DHT22;42288;52.182;21.156;2023-04-06T11:20:57;5.50;94.00
16980;DHT22;42288;52.182;21.156;2023-04-06T11:23:24;5.70;94.00
16980;DHT22;42288;52.182;21.156;2023-04-06T11:25:54;5.60;94.00
16980;DHT22;42288;52.182;21.156;2023-04-06T11:28:20;5.60;93.70
16980;DHT22;42288;52.182;21.156;2023-04-06T11:30:46;5.80;93.20
16980;DHT22;42288;52.182;21.156;2023-04-06T11:33:20;5.70;93.60
16980;DHT22;42288;52.182;21.156;2023-04-06T11:35:47;5.80;94.10
16980;DHT22;42288;52.182;21.156;2023-04-06T11:38:12;5.90;93.90
16980;DHT22;42288;52.182;21.156;2023-04-06T11:40:38;5.80;93.60
16980;DHT22;42288;52.182;21.156;2023-04-06T11:43:04;5.80;93.70
16980;DHT22;42288;52.182;21.156;2023-04-06T11:45:40;6.00;93.40
16980;DHT22;42288;52.182;21.156;2023-04-06T11:48:17;6.00;93.30
16980;DHT22;42288;52.182;21.156;2023-04-06T11:50:46;5.60;92.90
16980;DHT22;42288;52.182;21.156;2023-04-06T11:53:12;6.00;93.80
16980;DHT22;42288;52.182;21.156;2023-04-06T11:55:38;5.80;92.90
16980;DHT22;42288;52.182;21.156;2023-04-06T11:58:05;6.00;93.20
16980;DHT22;42288;52.182;21.156;2023-04-06T12:00:30;5.90;92.70
16980;DHT22;42288;52.182;21.156;2023-04-06T12:02:59;5.80;93.50
16980;DHT22;42288;52.182;21.156;2023-04-06T12:05:25;5.90;93.50
16980;DHT22;42288;52.182;21.156;2023-04-06T12:07:51;6.00;93.80
16980;DHT22;42288;52.182;21.156;2023-04-06T12:10:17;5.70;93.70
16980;DHT22;42288;52.182;21.156;2023-04-06T12:12:42;6.10;93.80
16980;DHT22;42288;52.182;21.156;2023-04-06T12:15:09;6.20;92.90
16980;DHT22;42288;52.182;21.156;2023-04-06T12:17:34;6.10;93.20
16980;DHT22;42288;52.182;21.156;2023-04-06T12:20:00;6.10;93.00
16980;DHT22;42288;52.182;21.156;2023-04-06T12:22:26;6.10;93.00
16980;DHT22;42288;52.182;21.156;2023-04-06T12:24:52;6.10;93.20
16980;DHT22;42288;52.182;21.156;2023-04-06T12:27:17;6.10;92.10
16980;DHT22;42288;52.182;21.156;2023-04-06T12:29:43;6.10;92.40
16980;DHT22;42288;52.182;21.156;2023-04-06T12:32:08;6.00;92.50
16980;DHT22;42288;52.182;21.156;2023-04-06T12:34:34;6.00;92.90
16980;DHT22;42288;52.182;21.156;2023-04-06T12:37:00;6.10;93.10
16980;DHT22;42288;52.182;21.156;2023-04-06T12:39:27;6.10;92.90
16980;DHT22;42288;52.182;21.156;2023-04-06T12:41:53;6.10;93.80
16980;DHT22;42288;52.182;21.156;2023-04-06T12:44:19;6.20;93.70
16980;DHT22;42288;52.182;21.156;2023-04-06T12:46:44;6.30;93.70
16980;DHT22;42288;52.182;21.156;2023-04-06T12:49:10;6.50;93.40
16980;DHT22;42288;52.182;21.156;2023-04-06T12:51:36;6.70;93.30
16980;DHT22;42288;52.182;21.156;2023-04-06T12:54:02;6.40;92.90
16980;DHT22;42288;52.182;21.156;2023-04-06T12:56:27;6.40;93.50
16980;DHT22;42288;52.182;21.156;2023-04-06T12:58:53;6.50;93.90
16980;DHT22;42288;52.182;21.156;2023-04-06T13:01:19;6.50;93.80
16980;DHT22;42288;52.182;21.156;2023-04-06T13:03:45;6.40;93.50
16980;DHT22;42288;52.182;21.156;2023-04-06T13:06:11;6.50;93.70
16980;DHT22;42288;52.182;21.156;2023-04-06T13:08:38;6.20;94.00
16980;DHT22;42288;52.182;21.156;2023-04-06T13:11:04;6.20;94.00
16980;DHT22;42288;52.182;21.156;2023-04-06T13:13:31;6.30;94.80
16980;DHT22;42288;52.182;21.156;2023-04-06T13:16:01;6.30;94.90
16980;DHT22;42288;52.182;21.156;2023-04-06T13:18:28;6.30;94.70
16980;DHT22;42288;52.182;21.156;2023-04-06T13:20:55;6.40;95.20
16980;DHT22;42288;52.182;21.156;2023-04-06T13:23:22;6.20;94.70
16980;DHT22;42288;52.182;21.156;2023-04-06T13:25:47;6.10;95.50
16980;DHT22;42288;52.182;21.156;2023-04-06T13:28:13;6.00;95.90
16980;DHT22;42288;52.182;21.156;2023-04-06T13:30:39;6.20;96.00
16980;DHT22;42288;52.182;21.156;2023-04-06T13:33:05;6.20;95.90
16980;DHT22;42288;52.182;21.156;2023-04-06T13:35:32;6.40;96.00
16980;DHT22;42288;52.182;21.156;2023-04-06T13:37:58;6.40;95.90
16980;DHT22;42288;52.182;21.156;2023-04-06T13:40:23;6.20;95.30
16980;DHT22;42288;52.182;21.156;2023-04-06T13:42:49;6.20;95.90
16980;DHT22;42288;52.182;21.156;2023-04-06T13:45:15;6.20;95.90
16980;DHT22;42288;52.182;21.156;2023-04-06T13:47:41;6.20;96.00
16980;DHT22;42288;52.182;21.156;2023-04-06T13:50:07;6.00;96.10
16980;DHT22;42288;52.182;21.156;2023-04-06T13:52:33;6.20;96.30
16980;DHT22;42288;52.182;21.156;2023-04-06T13:54:58;6.10;96.20
16980;DHT22;42288;52.182;21.156;2023-04-06T13:57:24;6.10;96.50
16980;DHT22;42288;52.182;21.156;2023-04-06T13:59:49;5.90;96.70
16980;DHT22;42288;52.182;21.156;2023-04-06T14:02:16;6.10;97.00
16980;DHT22;42288;52.182;21.156;2023-04-06T14:04:41;6.00;96.60
16980;DHT22;42288;52.182;21.156;2023-04-06T14:07:07;5.90;97.20
16980;DHT22;42288;52.182;21.156;2023-04-06T14:09:33;6.10;97.50
16980;DHT22;42288;52.182;21.156;2023-04-06T14:11:59;6.10;97.30
16980;DHT22;42288;52.182;21.156;2023-04-06T14:14:24;6.20;97.10
16980;DHT22;42288;52.182;21.156;2023-04-06T14:16:51;6.20;97.30
16980;DHT22;42288;52.182;21.156;2023-04-06T14:19:17;6.10;97.40
16980;DHT22;42288;52.182;21.156;2023-04-06T14:21:49;6.30;97.20
16980;DHT22;42288;52.182;21.156;2023-04-06T14:24:15;6.20;97.50
16980;DHT22;42288;52.182;21.156;2023-04-06T14:26:41;6.30;97.80
16980;DHT22;42288;52.182;21.156;2023-04-06T14:29:08;6.30;97.60
16980;DHT22;42288;52.182;21.156;2023-04-06T14:31:34;6.40;97.40
16980;DHT22;42288;52.182;21.156;2023-04-06T14:34:01;6.60;97.50
16980;DHT22;42288;52.182;21.156;2023-04-06T14:36:28;6.70;97.10
16980;DHT22;42288;52.182;21.156;2023-04-06T14:38:56;6.50;97.20
16980;DHT22;42288;52.182;21.156;2023-04-06T14:41:23;6.60;97.50
16980;DHT22;42288;52.182;21.156;2023-04-06T14:43:50;6.40;97.40
16980;DHT22;42288;52.182;21.156;2023-04-06T14:46:17;6.50;97.30
16980;DHT22;42288;52.182;21.156;2023-04-06T14:48:44;6.60;96.20
16980;DHT22;42288;52.182;21.156;2023-04-06T14:51:10;6.40;96.90
16980;DHT22;42288;52.182;21.156;2023-04-06T14:53:36;6.50;96.70
16980;DHT22;42288;52.182;21.156;2023-04-06T14:56:02;6.10;97.10
16980;DHT22;42288;52.182;21.156;2023-04-06T14:58:28;6.10;97.80
16980;DHT22;42288;52.182;21.156;2023-04-06T15:00:57;6.10;98.00
16980;DHT22;42288;52.182;21.156;2023-04-06T15:03:24;6.10;97.90
16980;DHT22;42288;52.182;21.156;2023-04-06T15:05:54;6.30;97.70
16980;DHT22;42288;52.182;21.156;2023-04-06T15:08:21;6.20;97.70
16980;DHT22;42288;52.182;21.156;2023-04-06T15:10:50;6.30;97.90
16980;DHT22;42288;52.182;21.156;2023-04-06T15:13:17;6.00;98.20
16980;DHT22;42288;52.182;21.156;2023-04-06T15:15:43;6.30;98.50
16980;DHT22;42288;52.182;21.156;2023-04-06T15:18:10;6.30;98.40
16980;DHT22;42288;52.182;21.156;2023-04-06T15:20:36;6.20;98.70
16980;DHT22;42288;52.182;21.156;2023-04-06T15:23:02;6.40;98.20
16980;DHT22;42288;52.182;21.156;2023-04-06T15:25:28;6.50;97.70
16980;DHT22;42288;52.182;21.156;2023-04-06T15:27:54;6.30;98.10